createdAt,value
2023-01-29T00:03:46.655Z,56.00
2023-01-29T00:08:49.091Z,56.53
2023-01-29T00:13:52.698Z,56.05
2023-01-29T00:18:55.316Z,55.45
2023-01-29T00:23:58.173Z,56.07
2023-01-29T00:29:03.639Z,56.20
2023-01-29T00:34:06.128Z,56.51
2023-01-29T00:39:11.155Z,56.52
2023-01-29T00:44:32.582Z,57.00
2023-01-29T00:49:39.215Z,56.87
2023-01-29T00:54:41.671Z,57.04
2023-01-29T00:59:44.541Z,56.93
2023-01-29T01:04:47.080Z,56.84
2023-01-29T01:10:07.879Z,56.68
2023-01-29T01:15:10.844Z,56.36
2023-01-29T01:20:14.318Z,56.77
2023-01-29T01:25:19.129Z,56.56
2023-01-29T01:30:22.293Z,56.24
2023-01-29T01:35:24.783Z,56.79
2023-01-29T01:40:27.569Z,56.64
2023-01-29T01:45:33.342Z,56.47
2023-01-29T01:51:03.537Z,56.46
2023-01-29T01:56:10.287Z,56.52
2023-01-29T02:01:13.724Z,56.43
2023-01-29T02:06:34.817Z,56.74
2023-01-29T02:11:38.767Z,57.38
2023-01-29T02:16:41.288Z,56.68
2023-01-29T02:22:28.619Z,57.80
2023-01-29T02:27:44.890Z,57.45
2023-01-29T02:33:02.673Z,57.86
2023-01-29T02:38:29.386Z,58.30
2023-01-29T02:43:48.148Z,58.36
2023-01-29T02:49:00.514Z,57.94
2023-01-29T02:54:20.884Z,57.97
2023-01-29T02:59:34.606Z,58.08
2023-01-29T03:04:46.769Z,58.09
2023-01-29T03:09:53.294Z,58.29
2023-01-29T03:15:14.525Z,58.67
2023-01-29T03:20:29.756Z,58.20
2023-01-29T03:25:53.824Z,58.14
2023-01-29T03:31:21.118Z,58.17
2023-01-29T03:36:45.673Z,58.06
2023-01-29T03:42:11.964Z,58.30
2023-01-29T03:47:27.418Z,58.64
2023-01-29T03:53:02.238Z,58.60
2023-01-29T03:58:35.342Z,58.66
2023-01-29T04:03:42.488Z,58.52
2023-01-29T04:08:56.323Z,58.06
2023-01-29T04:13:59.894Z,58.38
2023-01-29T04:19:03.077Z,58.77
2023-01-29T04:24:13.872Z,58.51
2023-01-29T04:29:31.073Z,58.63
2023-01-29T04:35:23.134Z,58.26
2023-01-29T04:40:51.286Z,58.77
2023-01-29T04:46:41.146Z,58.57
2023-01-29T04:51:55.459Z,57.98
2023-01-29T04:57:04.673Z,57.83
2023-01-29T05:02:10.904Z,58.35
2023-01-29T05:07:16.393Z,58.15
2023-01-29T05:12:19.448Z,57.64
2023-01-29T05:17:22.117Z,57.66
2023-01-29T05:22:25.020Z,57.66
2023-01-29T05:27:53.515Z,58.23
2023-01-29T05:32:55.939Z,57.69
2023-01-29T05:37:58.953Z,57.21
2023-01-29T05:43:01.706Z,58.08
2023-01-29T05:48:04.373Z,57.90
2023-01-29T05:53:06.775Z,57.89
2023-01-29T05:58:09.235Z,57.82
2023-01-29T06:03:11.742Z,57.48
2023-01-29T06:08:14.248Z,56.98
2023-01-29T06:13:16.699Z,57.26
2023-01-29T06:18:19.376Z,56.94
2023-01-29T06:23:21.827Z,56.62
2023-01-29T06:28:24.469Z,56.41
2023-01-29T06:33:26.988Z,56.33
2023-01-29T06:38:30.263Z,56.55
2023-01-29T06:43:32.756Z,56.90
2023-01-29T06:48:35.779Z,56.56
2023-01-29T06:53:39.668Z,56.38
2023-01-29T06:58:43.808Z,56.21
2023-01-29T07:03:51.087Z,55.58
2023-01-29T07:08:53.556Z,54.84
2023-01-29T07:13:55.985Z,51.88
2023-01-29T07:18:58.537Z,51.81
2023-01-29T07:24:01.086Z,51.54
2023-01-29T07:29:05.446Z,51.78
2023-01-29T07:34:07.917Z,51.57
2023-01-29T07:39:10.372Z,50.97
2023-01-29T07:44:12.912Z,50.95
2023-01-29T07:49:15.975Z,50.83
2023-01-29T07:54:18.422Z,49.86
2023-01-29T07:59:20.889Z,50.19
2023-01-29T08:04:23.408Z,50.12
2023-01-29T08:09:25.873Z,50.45
2023-01-29T08:14:28.437Z,50.42
2023-01-29T08:19:30.962Z,50.42
2023-01-29T08:24:47.669Z,50.19
2023-01-29T08:29:56.501Z,50.46
2023-01-29T08:34:59.773Z,50.71
2023-01-29T08:40:09.797Z,50.70
2023-01-29T08:45:12.389Z,49.94
2023-01-29T08:50:16.232Z,50.14
2023-01-29T08:55:20.260Z,49.64
2023-01-29T09:00:23.847Z,49.40
2023-01-29T09:05:26.389Z,50.41
2023-01-29T09:10:28.899Z,50.23
2023-01-29T09:15:31.448Z,50.96
2023-01-29T09:20:38.151Z,51.02
2023-01-29T09:25:44.465Z,51.28
2023-01-29T09:30:47.734Z,51.02
2023-01-29T09:36:01.113Z,51.56
2023-01-29T09:41:27.708Z,51.33
2023-01-29T09:46:30.130Z,51.95
2023-01-29T09:52:01.689Z,51.55
2023-01-29T09:57:16.035Z,51.76
2023-01-29T10:03:00.084Z,52.86
2023-01-29T10:08:17.143Z,53.39
2023-01-29T10:13:19.467Z,53.76
2023-01-29T10:18:41.923Z,53.80
2023-01-29T10:23:51.200Z,53.52
2023-01-29T10:28:57.688Z,52.48
2023-01-29T10:34:27.577Z,53.08
2023-01-29T10:39:32.885Z,51.49
2023-01-29T10:44:38.311Z,49.94
2023-01-29T10:49:46.502Z,50.79
2023-01-29T10:55:06.864Z,50.03
2023-01-29T11:00:24.244Z,50.02
2023-01-29T11:05:36.670Z,50.17
2023-01-29T11:10:46.482Z,50.31
2023-01-29T11:15:53.190Z,50.72
2023-01-29T11:21:05.008Z,50.21
2023-01-29T11:26:13.647Z,49.95
2023-01-29T11:31:18.573Z,50.36
2023-01-29T11:36:39.043Z,50.60
2023-01-29T11:42:13.534Z,50.52
2023-01-29T11:47:16.619Z,50.88
2023-01-29T11:52:25.357Z,50.94
2023-01-29T11:57:31.668Z,51.57
2023-01-29T12:02:39.023Z,51.21
2023-01-29T12:07:52.147Z,50.91
2023-01-29T12:13:21.637Z,50.68
2023-01-29T12:18:35.748Z,51.20
2023-01-29T12:24:07.328Z,51.13
2023-01-29T12:29:18.560Z,51.55
2023-01-29T12:34:35.028Z,52.04
2023-01-29T12:39:37.880Z,52.30
2023-01-29T12:44:49.588Z,52.59
2023-01-29T12:50:00.665Z,52.69
2023-01-29T12:55:24.675Z,53.15
2023-01-29T13:00:43.933Z,53.24
2023-01-29T13:06:03.542Z,53.02
2023-01-29T13:11:20.071Z,53.99
2023-01-29T13:16:31.301Z,53.62
2023-01-29T13:21:44.364Z,54.49
2023-01-29T13:26:50.707Z,54.73
2023-01-29T13:31:55.821Z,54.95
2023-01-29T13:37:01.953Z,55.73
2023-01-29T13:42:26.612Z,55.77
2023-01-29T13:47:33.988Z,56.33
2023-01-29T13:53:02.441Z,56.03
2023-01-29T13:58:27.787Z,56.15
2023-01-29T14:03:45.037Z,56.06
2023-01-29T14:08:52.650Z,56.27
2023-01-29T14:13:55.147Z,56.98
2023-01-29T14:19:01.016Z,56.62
2023-01-29T14:24:17.686Z,57.51
2023-01-29T14:29:34.344Z,57.78
2023-01-29T14:34:49.395Z,58.53
2023-01-29T14:39:59.154Z,58.50
2023-01-29T14:45:08.273Z,58.73
2023-01-29T14:50:19.540Z,58.34
2023-01-29T14:55:57.097Z,58.16
2023-01-29T15:01:00.477Z,58.39
2023-01-29T15:06:05.226Z,58.69
2023-01-29T15:11:34.130Z,59.16
2023-01-29T15:17:17.617Z,58.86
2023-01-29T15:22:29.343Z,59.74
2023-01-29T15:27:32.327Z,60.03
2023-01-29T15:32:37.860Z,60.17
2023-01-29T15:37:40.471Z,60.39
2023-01-29T15:42:48.842Z,60.63
2023-01-29T15:47:53.068Z,60.87
2023-01-29T15:53:00.474Z,60.94
2023-01-29T15:58:03.000Z,61.31
2023-01-29T16:03:18.424Z,61.82
2023-01-29T16:08:26.495Z,62.01
2023-01-29T16:13:32.099Z,62.13
2023-01-29T16:18:39.512Z,62.42
2023-01-29T16:23:51.737Z,62.51
2023-01-29T16:28:55.522Z,62.31
2023-01-29T16:33:59.701Z,62.68
2023-01-29T16:39:05.857Z,62.87
2023-01-29T16:44:17.151Z,62.83
2023-01-29T16:49:28.894Z,63.36
2023-01-29T16:54:31.416Z,63.18
2023-01-29T16:59:40.165Z,63.58
2023-01-29T17:04:43.950Z,64.11
2023-01-29T17:09:53.915Z,63.91
2023-01-29T17:15:00.559Z,64.36
2023-01-29T17:20:23.713Z,64.00
2023-01-29T17:25:28.676Z,64.13
2023-01-29T17:30:37.593Z,64.18
2023-01-29T17:35:42.525Z,64.22
2023-01-29T17:40:54.133Z,64.28
2023-01-29T17:45:56.868Z,64.80
2023-01-29T17:51:03.032Z,64.49
2023-01-29T17:56:05.552Z,65.02
2023-01-29T18:01:07.914Z,64.39
2023-01-29T18:06:20.547Z,65.07
2023-01-29T18:11:23.208Z,65.13
2023-01-29T18:16:26.300Z,65.40
2023-01-29T18:21:28.790Z,64.96
2023-01-29T18:26:32.311Z,65.14
2023-01-29T18:31:34.912Z,65.93
2023-01-29T18:36:37.489Z,65.16
2023-01-29T18:41:41.123Z,65.22
2023-01-29T18:46:43.733Z,65.63
2023-01-29T18:51:46.275Z,65.40
2023-01-29T18:57:13.248Z,66.21
2023-01-29T19:02:17.714Z,65.61
2023-01-29T19:07:20.324Z,65.79
2023-01-29T19:12:23.407Z,64.97
2023-01-29T19:17:26.354Z,65.25
2023-01-29T19:22:29.794Z,65.34
2023-01-29T19:27:33.646Z,65.48
2023-01-29T19:32:36.217Z,66.08
2023-01-29T19:37:38.692Z,65.29
2023-01-29T19:42:41.532Z,65.90
2023-01-29T19:47:44.789Z,65.63
2023-01-29T19:52:51.533Z,65.72
2023-01-29T19:57:54.791Z,65.37
2023-01-29T20:02:57.231Z,65.57
2023-01-29T20:07:59.745Z,65.80
2023-01-29T20:13:06.269Z,65.80
2023-01-29T20:18:12.256Z,65.54
2023-01-29T20:23:22.285Z,64.87
